Time;durP1;ratioP1;P1;durP2;ratioP2;P2;SDS_P1;SDS_P2;PMS_P1;PMS_P2;Temp;Humidity;BMP_temperature;BMP_pressure;BME280_temperature;BME280_humidity;BME280_pressure;Samples;Min_cycle;Max_cycle;Signal;HPM_P1;HPM_P2
2021/11/14 00:01:28;;;;;;;47.40;24.92;;;;;;;8.44;75.05;100314.53;5048867;28;20103;-47
2021/11/14 00:03:53;;;;;;;48.50;24.48;;;;;;;8.00;75.19;100311.41;5048172;28;20184;-48
2021/11/14 00:06:22;;;;;;;44.40;23.85;;;;;;;7.86;75.72;100311.28;5048838;28;20024;-50
2021/11/14 00:08:48;;;;;;;46.72;23.95;;;;;;;7.99;75.27;100304.44;5049741;28;20094;-49
2021/11/14 00:11:14;;;;;;;49.08;24.45;;;;;;;8.01;74.73;100310.41;5052131;28;20036;-49
2021/11/14 00:13:40;;;;;;;43.75;23.98;;;;;;;7.99;74.94;100309.75;5052351;28;20025;-50
2021/11/14 00:16:07;;;;;;;48.40;24.60;;;;;;;8.05;74.44;100304.75;5052138;28;20025;-50
2021/11/14 00:18:33;;;;;;;47.03;23.63;;;;;;;7.83;75.33;100304.53;5052330;28;20051;-50
2021/11/14 00:20:59;;;;;;;47.47;24.90;;;;;;;7.95;75.21;100311.09;5052068;28;20029;-49
2021/11/14 00:23:25;;;;;;;49.60;25.52;;;;;;;7.82;75.76;100308.16;5052107;28;20032;-47
2021/11/14 00:25:50;;;;;;;50.58;26.02;;;;;;;7.86;75.67;100306.81;5051939;28;20036;-47
2021/11/14 00:28:17;;;;;;;53.72;26.23;;;;;;;7.57;76.99;100310.06;5050641;28;20021;-47
2021/11/14 00:30:42;;;;;;;55.33;27.98;;;;;;;7.78;76.44;100305.03;5052016;28;20166;-48
2021/11/14 00:33:10;;;;;;;55.08;26.73;;;;;;;7.59;76.49;100306.25;5051640;28;20029;-47
2021/11/14 00:35:36;;;;;;;54.00;27.67;;;;;;;7.69;76.79;100323.78;5051802;28;20091;-47
2021/11/14 00:38:01;;;;;;;59.38;27.63;;;;;;;7.58;76.91;100317.03;5052259;28;20381;-47
2021/11/14 00:40:29;;;;;;;55.53;27.30;;;;;;;7.49;77.35;100320.69;5051844;28;20017;-48
2021/11/14 00:42:56;;;;;;;57.83;28.20;;;;;;;7.54;77.35;100321.00;5051615;28;20107;-47
2021/11/14 00:45:22;;;;;;;61.20;28.13;;;;;;;7.34;77.56;100308.13;5051973;28;20653;-48
2021/11/14 00:47:47;;;;;;;57.65;27.67;;;;;;;7.55;76.77;100320.00;5050767;28;20091;-47
2021/11/14 00:50:13;;;;;;;55.95;26.85;;;;;;;7.48;77.57;100319.03;5051360;28;20029;-46
2021/11/14 00:52:40;;;;;;;57.03;27.38;;;;;;;7.54;77.13;100318.34;5051563;28;20057;-47
2021/11/14 00:55:06;;;;;;;58.75;27.80;;;;;;;7.53;76.87;100298.16;5051571;28;20029;-47
2021/11/14 00:57:31;;;;;;;52.20;26.42;;;;;;;7.77;76.75;100313.16;5051418;28;20036;-48
2021/11/14 00:59:57;;;;;;;50.67;25.45;;;;;;;7.53;76.96;100317.53;5051534;28;20032;-47
2021/11/14 01:02:22;;;;;;;51.42;26.05;;;;;;;7.30;78.15;100316.59;5051605;28;20029;-47
2021/11/14 01:04:48;;;;;;;52.55;27.58;;;;;;;7.72;76.73;100316.31;5051500;28;20036;-47
2021/11/14 01:07:13;;;;;;;52.47;27.33;;;;;;;7.89;77.04;100305.66;5051200;28;20446;-47
2021/11/14 01:09:40;;;;;;;54.25;26.88;;;;;;;7.59;76.95;100308.06;5051285;28;20087;-48
2021/11/14 01:12:06;;;;;;;54.30;27.85;;;;;;;7.62;77.13;100305.91;5049838;28;20388;-48
2021/11/14 01:14:31;;;;;;;54.47;27.70;;;;;;;7.87;76.11;100299.72;5050834;28;20021;-47
2021/11/14 01:16:57;;;;;;;55.50;26.58;;;;;;;7.87;76.27;100302.38;5051494;28;20408;-47
2021/11/14 01:19:23;;;;;;;51.47;26.55;;;;;;;7.91;75.43;100307.13;5051039;28;20028;-49
2021/11/14 01:21:48;;;;;;;52.58;26.75;;;;;;;7.87;76.06;100303.19;5050572;28;20086;-48
2021/11/14 01:24:14;;;;;;;49.13;25.85;;;;;;;7.88;76.12;100301.34;5051022;28;20025;-48
2021/11/14 01:26:40;;;;;;;52.80;26.65;;;;;;;7.81;75.88;100295.94;5051053;28;20083;-47
2021/11/14 01:29:06;;;;;;;51.20;26.05;;;;;;;7.55;77.02;100307.59;5050953;28;20021;-47
2021/11/14 01:31:31;;;;;;;53.20;27.13;;;;;;;7.58;77.38;100301.97;5051101;28;20041;-47
2021/11/14 01:33:57;;;;;;;49.85;26.77;;;;;;;7.69;77.03;100314.03;5051000;28;20059;-48
2021/11/14 01:36:22;;;;;;;53.33;26.10;;;;;;;7.85;76.73;100299.88;5051257;28;20466;-48
2021/11/14 01:38:48;;;;;;;53.65;26.55;;;;;;;7.86;76.02;100296.22;5050982;28;20112;-47
2021/11/14 01:41:13;;;;;;;52.20;27.02;;;;;;;7.94;75.11;100311.25;5050250;28;20075;-49
2021/11/14 01:43:47;;;;;;;51.72;26.25;;;;;;;7.61;76.58;100311.38;5051233;28;20127;-49
2021/11/14 01:46:13;;;;;;;52.67;24.95;;;;;;;7.81;75.72;100302.03;5051481;28;20067;-51
2021/11/14 01:48:38;;;;;;;54.13;26.83;;;;;;;7.67;77.06;100308.03;5049774;28;20049;-47
2021/11/14 01:51:04;;;;;;;50.45;26.10;;;;;;;7.88;76.09;100304.00;5051093;28;20056;-48
2021/11/14 01:53:30;;;;;;;54.15;25.95;;;;;;;7.75;76.43;100312.47;5051339;28;20028;-49
2021/11/14 01:55:55;;;;;;;54.55;26.83;;;;;;;7.95;75.29;100304.97;5051160;28;20495;-48
2021/11/14 01:58:24;;;;;;;55.63;25.73;;;;;;;7.93;76.11;100306.97;5051156;28;20021;-48
2021/11/14 02:01:01;;;;;;;52.63;26.08;;;;;;;8.00;75.29;100302.63;5051303;28;20029;-47
2021/11/14 02:03:27;;;;;;;53.75;26.95;;;;;;;7.72;76.72;100295.13;5050955;28;20029;-47
2021/11/14 02:05:53;;;;;;;52.85;26.58;;;;;;;7.52;76.93;100305.28;5050605;28;20029;-47
2021/11/14 02:08:19;;;;;;;54.67;27.05;;;;;;;7.67;76.68;100302.75;5050993;28;20114;-48
2021/11/14 02:10:44;;;;;;;56.60;27.88;;;;;;;7.58;76.75;100287.91;5050904;28;20040;-47
2021/11/14 02:13:10;;;;;;;51.40;26.67;;;;;;;7.79;76.74;100297.91;5050874;28;20028;-47
2021/11/14 02:15:36;;;;;;;50.15;26.80;;;;;;;7.88;75.89;100293.41;5050482;28;20104;-48
2021/11/14 02:18:02;;;;;;;52.70;26.58;;;;;;;7.80;76.16;100289.78;5050529;28;20115;-49
2021/11/14 02:20:28;;;;;;;51.97;25.88;;;;;;;7.64;76.74;100303.09;5050111;28;20110;-49
2021/11/14 02:22:54;;;;;;;51.25;25.67;;;;;;;7.80;76.53;100294.25;5050458;28;20049;-47
2021/11/14 02:25:21;;;;;;;51.25;25.80;;;;;;;7.78;76.15;100293.59;5050367;28;20079;-48
2021/11/14 02:27:46;;;;;;;50.92;26.10;;;;;;;7.63;76.69;100296.13;5050386;28;20033;-47
2021/11/14 02:30:13;;;;;;;49.28;26.52;;;;;;;7.96;75.88;100298.69;5050369;28;20048;-49
2021/11/14 02:32:38;;;;;;;48.20;25.63;;;;;;;7.80;75.88;100299.56;5049053;28;20043;-47
2021/11/14 02:35:04;;;;;;;53.90;26.48;;;;;;;7.88;75.96;100302.19;5049987;28;20049;-47
2021/11/14 02:37:29;;;;;;;49.78;25.45;;;;;;;7.57;76.14;100305.59;5050461;28;20035;-49
2021/11/14 02:39:55;;;;;;;49.65;25.38;;;;;;;7.77;75.59;100306.03;5050363;28;20342;-49
2021/11/14 02:42:20;;;;;;;52.05;24.90;;;;;;;7.77;75.53;100298.09;5049994;28;20104;-50
2021/11/14 02:44:46;;;;;;;46.95;24.73;;;;;;;7.86;75.53;100296.22;5050106;28;20025;-49
2021/11/14 02:47:12;;;;;;;47.85;23.55;;;;;;;7.67;75.40;100305.41;5050139;28;20099;-47
2021/11/14 02:49:37;;;;;;;46.55;24.38;;;;;;;7.72;75.28;100296.94;5049878;28;20044;-47
2021/11/14 02:52:04;;;;;;;46.92;23.80;;;;;;;7.62;75.45;100297.97;5049600;28;20089;-48
2021/11/14 02:54:29;;;;;;;44.72;23.38;;;;;;;7.71;74.95;100301.44;5049819;28;20442;-51
2021/11/14 02:56:55;;;;;;;44.15;23.17;;;;;;;7.93;74.47;100291.06;5050042;28;20095;-48
2021/11/14 02:59:20;;;;;;;46.63;23.05;;;;;;;8.02;73.81;100300.63;5049735;28;20021;-50
2021/11/14 03:01:47;;;;;;;47.97;23.05;;;;;;;7.85;74.49;100296.41;5049983;28;20024;-49
2021/11/14 03:04:17;;;;;;;51.28;23.80;;;;;;;7.67;75.63;100308.03;5049828;28;20481;-49
2021/11/14 03:06:43;;;;;;;47.60;24.25;;;;;;;7.63;74.78;100304.94;5048436;28;20455;-48
2021/11/14 03:09:08;;;;;;;50.80;22.60;;;;;;;7.68;75.07;100303.59;5049543;28;20134;-49
2021/11/14 03:11:34;;;;;;;48.08;23.92;;;;;;;7.61;75.32;100304.25;5049613;28;20021;-50
2021/11/14 03:13:59;;;;;;;49.78;24.75;;;;;;;7.80;74.96;100300.38;5049688;28;20043;-47
2021/11/14 03:16:26;;;;;;;50.10;24.55;;;;;;;7.63;75.21;100304.09;5049646;28;20028;-49
2021/11/14 03:18:52;;;;;;;53.45;24.83;;;;;;;7.55;76.69;100301.47;5049752;28;20029;-48
2021/11/14 03:21:18;;;;;;;53.72;26.35;;;;;;;7.68;75.45;100298.28;5049811;28;20099;-47
2021/11/14 03:23:43;;;;;;;53.75;25.95;;;;;;;7.87;74.63;100297.88;5049200;28;20382;-49
2021/11/14 03:26:09;;;;;;;56.42;26.27;;;;;;;8.02;73.81;100297.97;5049248;28;20028;-52
2021/11/14 03:28:35;;;;;;;52.13;25.30;;;;;;;7.80;73.79;100288.97;5048978;28;20021;-48
2021/11/14 03:31:00;;;;;;;53.38;25.67;;;;;;;7.66;75.09;100290.50;5048850;28;20017;-49
2021/11/14 03:33:26;;;;;;;54.45;26.10;;;;;;;7.58;75.20;100293.19;5049419;28;20568;-48
2021/11/14 03:35:57;;;;;;;51.72;25.42;;;;;;;7.67;74.42;100300.09;5049078;28;20044;-48
2021/11/14 03:38:25;;;;;;;52.33;25.13;;;;;;;7.72;74.56;100292.47;5048879;28;20537;-49
2021/11/14 03:40:51;;;;;;;50.92;23.98;;;;;;;7.69;74.71;100290.19;5049113;28;20461;-47
2021/11/14 03:43:16;;;;;;;50.88;24.10;;;;;;;7.52;74.76;100293.84;5049718;28;20036;-47
2021/11/14 03:45:42;;;;;;;51.33;24.63;;;;;;;7.41;75.27;100295.88;5052846;28;20408;-48
2021/11/14 03:48:08;;;;;;;51.28;24.42;;;;;;;7.47;75.30;100291.72;5052934;28;20051;-47
2021/11/14 03:50:34;;;;;;;57.60;24.77;;;;;;;7.77;74.11;100292.78;5052431;28;20029;-48
2021/11/14 03:53:00;;;;;;;50.97;24.00;;;;;;;7.91;73.66;100290.41;5052976;28;20117;-49
2021/11/14 03:55:25;;;;;;;51.60;24.27;;;;;;;7.80;73.46;100292.44;5053011;28;20029;-48
2021/11/14 03:57:51;;;;;;;48.88;23.27;;;;;;;7.56;73.79;100289.91;5052771;28;20036;-49
2021/11/14 04:00:25;;;;;;;46.00;23.00;;;;;;;7.59;74.14;100290.34;5052813;28;20032;-47
2021/11/14 04:02:51;;;;;;;46.53;23.20;;;;;;;7.74;73.27;100284.34;5052882;28;20040;-48
2021/11/14 04:05:18;;;;;;;45.28;22.08;;;;;;;7.70;73.49;100294.47;5052656;28;20033;-48
2021/11/14 04:07:43;;;;;;;44.85;20.75;;;;;;;7.88;72.06;100288.94;5051636;28;20116;-47
2021/11/14 04:10:09;;;;;;;42.28;20.15;;;;;;;7.64;72.39;100298.63;5052675;28;20056;-47
2021/11/14 04:12:35;;;;;;;46.75;20.58;;;;;;;7.64;72.14;100298.63;5052626;28;20036;-49
2021/11/14 04:15:00;;;;;;;40.88;20.60;;;;;;;7.46;72.84;100297.19;5051164;28;20020;-48
2021/11/14 04:17:25;;;;;;;42.10;20.23;;;;;;;7.53;72.20;100291.03;5052554;28;20054;-47
2021/11/14 04:19:51;;;;;;;39.97;19.95;;;;;;;7.38;72.31;100293.56;5052336;28;20025;-51
2021/11/14 04:22:16;;;;;;;39.72;19.85;;;;;;;7.38;72.75;100293.56;5052467;28;20024;-48
2021/11/14 04:24:42;;;;;;;41.92;20.25;;;;;;;7.64;71.85;100290.69;5052579;28;20025;-48
2021/11/14 04:27:07;;;;;;;39.13;19.05;;;;;;;7.55;71.41;100294.34;5052335;28;20493;-48
2021/11/14 04:29:33;;;;;;;41.88;20.13;;;;;;;7.63;72.26;100298.78;5052165;28;20047;-48
2021/11/14 04:31:58;;;;;;;37.80;18.52;;;;;;;7.75;71.06;100294.78;5052168;28;20082;-48
2021/11/14 04:34:24;;;;;;;34.95;17.95;;;;;;;7.55;70.53;100304.13;5052261;28;20053;-47
2021/11/14 04:36:49;;;;;;;36.33;17.90;;;;;;;7.57;71.42;100300.28;5052138;28;20098;-48
2021/11/14 04:39:15;;;;;;;36.28;18.42;;;;;;;7.72;71.05;100294.31;5052086;28;20021;-48
2021/11/14 04:41:40;;;;;;;35.33;16.83;;;;;;;7.55;70.29;100293.53;5050640;28;20032;-49
2021/11/14 04:44:06;;;;;;;35.17;17.92;;;;;;;7.55;70.95;100298.81;5051865;28;20028;-48
2021/11/14 04:46:31;;;;;;;35.00;17.42;;;;;;;7.63;70.54;100297.00;5052129;28;20032;-48
2021/11/14 04:48:56;;;;;;;38.85;18.05;;;;;;;7.53;70.16;100298.16;5051747;28;20539;-48
2021/11/14 04:51:22;;;;;;;36.88;19.00;;;;;;;7.46;70.29;100305.13;5051939;28;20032;-48
2021/11/14 04:53:47;;;;;;;50.55;27.52;;;;;;;7.51;70.90;100297.50;5051960;28;20473;-47
2021/11/14 04:56:13;;;;;;;54.22;25.52;;;;;;;7.49;70.63;100295.03;5050480;28;20096;-49
2021/11/14 04:58:38;;;;;;;36.55;17.02;;;;;;;7.58;69.71;100299.31;5052013;28;20028;-48
2021/11/14 05:01:04;;;;;;;33.22;17.38;;;;;;;7.13;71.42;100295.44;5051566;28;20385;-47
2021/11/14 05:03:29;;;;;;;39.97;18.10;;;;;;;7.16;71.63;100305.69;5051747;28;20028;-47
2021/11/14 05:05:57;;;;;;;35.25;17.15;;;;;;;7.45;70.53;100299.03;5051686;28;20036;-48
2021/11/14 05:08:24;;;;;;;31.95;17.27;;;;;;;7.51;69.36;100303.63;5051692;28;20475;-48
2021/11/14 05:10:50;;;;;;;32.47;16.63;;;;;;;7.35;69.39;100307.16;5051607;28;20025;-47
2021/11/14 05:13:16;;;;;;;32.95;15.88;;;;;;;7.48;69.13;100308.44;5051427;28;20369;-47
2021/11/14 05:15:41;;;;;;;31.83;16.15;;;;;;;7.33;69.70;100305.66;5051363;28;20021;-47
2021/11/14 05:18:07;;;;;;;34.30;16.20;;;;;;;7.35;69.52;100316.91;5051275;28;20448;-47
2021/11/14 05:20:33;;;;;;;33.95;16.52;;;;;;;7.31;69.77;100315.59;5051616;28;20099;-47
2021/11/14 05:22:59;;;;;;;34.15;16.85;;;;;;;7.28;69.88;100308.00;5051761;28;20060;-48
2021/11/14 05:25:24;;;;;;;36.85;17.33;;;;;;;7.25;70.28;100309.13;5051225;28;20017;-49
2021/11/14 05:27:50;;;;;;;35.10;17.20;;;;;;;7.36;69.73;100316.72;5051120;28;20021;-49
2021/11/14 05:30:15;;;;;;;33.63;16.80;;;;;;;7.24;70.73;100318.91;5051000;28;20024;-49
2021/11/14 05:32:41;;;;;;;35.92;16.33;;;;;;;7.46;69.24;100315.72;5050932;28;20082;-48
2021/11/14 05:35:07;;;;;;;32.97;15.98;;;;;;;7.17;69.94;100320.56;5050897;28;20064;-48
2021/11/14 05:37:32;;;;;;;32.38;16.50;;;;;;;7.15;70.65;100324.38;5051126;28;20099;-47
2021/11/14 05:39:58;;;;;;;34.22;17.02;;;;;;;7.31;70.24;100323.53;5050903;28;20537;-48
2021/11/14 05:42:23;;;;;;;34.45;16.58;;;;;;;7.23;69.81;100329.66;5043217;28;20049;-47
2021/11/14 05:44:49;;;;;;;38.28;17.27;;;;;;;7.21;70.24;100321.88;5031248;28;20387;-49
2021/11/14 05:47:14;;;;;;;36.03;17.02;;;;;;;7.14;69.60;100325.38;5031325;28;20018;-47
2021/11/14 05:49:40;;;;;;;33.80;17.27;;;;;;;6.99;69.93;100302.22;5031238;28;20021;-38
2021/11/14 05:52:06;;;;;;;34.90;16.42;;;;;;;7.00;70.58;100325.03;5044979;28;20027;-38
2021/11/14 05:54:31;;;;;;;35.03;17.08;;;;;;;7.31;73.14;100323.53;5051244;28;20029;-38
2021/11/14 05:56:58;;;;;;;34.40;16.60;;;;;;;7.22;69.81;100330.66;5050913;28;20029;-38
2021/11/14 06:01:58;;;;;;;35.38;17.02;;;;;;;7.30;69.45;100306.00;5050760;28;20017;-37
2021/11/14 06:06:49;;;;;;;39.28;17.95;;;;;;;7.42;69.04;100336.41;5050499;28;20744;-50
2021/11/14 06:09:15;;;;;;;33.20;17.20;;;;;;;7.18;69.30;100334.66;5050512;28;20025;-47
2021/11/14 06:11:40;;;;;;;32.22;17.30;;;;;;;7.20;69.60;100341.41;5050282;28;20020;-48
2021/11/14 06:14:06;;;;;;;32.55;17.40;;;;;;;7.22;70.29;100349.19;5049308;28;20115;-50
2021/11/14 06:16:31;;;;;;;36.92;17.77;;;;;;;7.24;70.40;100350.69;5050216;28;20390;-48
2021/11/14 06:18:57;;;;;;;33.47;17.02;;;;;;;7.48;69.64;100356.94;5050507;28;20028;-48
2021/11/14 06:21:23;;;;;;;54.55;29.45;;;;;;;8.11;68.46;100351.78;5050198;28;20465;-49
2021/11/14 06:23:51;;;;;;;49.60;24.80;;;;;;;8.06;67.71;100354.94;5050308;28;20552;-48
2021/11/14 06:26:17;;;;;;;48.47;23.30;;;;;;;8.01;68.01;100357.28;5050350;28;20017;-47
2021/11/14 06:28:42;;;;;;;45.10;22.80;;;;;;;7.95;69.21;100360.63;5050233;28;20024;-50
2021/11/14 06:31:08;;;;;;;39.65;20.05;;;;;;;8.00;69.01;100358.28;5050166;28;20017;-50
2021/11/14 06:33:33;;;;;;;37.10;18.40;;;;;;;7.93;68.06;100358.13;5050377;28;20127;-46
2021/11/14 06:35:58;;;;;;;37.20;18.50;;;;;;;8.57;77.17;100367.84;5049425;28;20047;-47
2021/11/14 06:38:24;;;;;;;30.60;17.00;;;;;;;10.31;74.14;100360.72;5049510;28;20032;-47
2021/11/14 06:40:49;;;;;;;29.20;16.13;;;;;;;10.33;66.99;100356.03;5049557;28;20345;-47
2021/11/14 06:43:15;;;;;;;34.13;17.20;;;;;;;10.14;66.14;100357.41;5049626;28;20079;-47
2021/11/14 06:45:41;;;;;;;29.95;16.10;;;;;;;10.44;68.93;100360.88;5049411;28;20472;-48
2021/11/14 06:48:06;;;;;;;32.35;16.52;;;;;;;11.19;62.31;100358.72;5049143;28;20108;-46
2021/11/14 06:50:32;;;;;;;29.85;16.25;;;;;;;10.98;60.61;100351.56;5048778;28;20029;-47
2021/11/14 06:52:57;;;;;;;33.00;16.65;;;;;;;10.56;61.59;100355.88;5048991;28;20028;-47
2021/11/14 06:55:23;;;;;;;30.65;17.23;;;;;;;10.40;63.94;100350.81;5047455;28;20029;-47
2021/11/14 06:57:48;;;;;;;36.20;17.63;;;;;;;10.01;60.71;100357.25;5048761;28;20062;-47
2021/11/14 07:00:19;;;;;;;31.83;17.27;;;;;;;9.49;62.46;100340.38;5048573;28;20021;-46
2021/11/14 07:02:44;;;;;;;34.55;17.15;;;;;;;8.70;64.97;100338.03;5048862;28;20025;-50
2021/11/14 07:05:10;;;;;;;32.50;17.38;;;;;;;8.46;65.90;100361.09;5049084;28;20083;-49
2021/11/14 07:07:35;;;;;;;38.83;18.48;;;;;;;8.56;66.49;100358.22;5049354;28;20025;-48
2021/11/14 07:10:02;;;;;;;36.47;18.95;;;;;;;8.47;66.68;100352.09;5048718;28;20025;-46
2021/11/14 07:12:28;;;;;;;38.83;17.88;;;;;;;8.51;66.44;100347.28;5048750;28;20025;-47
2021/11/14 07:14:53;;;;;;;35.80;18.35;;;;;;;8.34;67.41;100352.66;5048694;28;20511;-47
2021/11/14 07:17:19;;;;;;;36.83;18.23;;;;;;;8.37;67.26;100354.97;5048449;28;20037;-51
2021/11/14 07:19:45;;;;;;;37.28;18.13;;;;;;;8.49;67.00;100351.94;5051142;28;20024;-48
2021/11/14 07:22:10;;;;;;;36.15;17.88;;;;;;;8.29;67.56;100359.50;5052422;28;20033;-50
2021/11/14 07:24:36;;;;;;;38.97;18.77;;;;;;;8.15;67.75;100351.28;5052435;28;20032;-48
2021/11/14 07:27:02;;;;;;;35.78;18.75;;;;;;;8.20;68.79;100351.56;5052583;28;20029;-48
2021/11/14 07:29:27;;;;;;;35.78;18.17;;;;;;;8.24;68.78;100354.69;5051936;28;20029;-49
2021/11/14 07:31:53;;;;;;;33.97;17.38;;;;;;;8.08;69.55;100352.13;5052533;28;20052;-48
2021/11/14 07:34:18;;;;;;;35.17;17.95;;;;;;;8.45;68.23;100361.25;5051772;28;20460;-49
2021/11/14 07:36:44;;;;;;;37.47;18.38;;;;;;;9.21;65.17;100351.56;5051838;28;20040;-49
2021/11/14 07:39:09;;;;;;;37.22;18.50;;;;;;;9.04;65.49;100353.53;5051740;28;20108;-51
2021/11/14 07:41:35;;;;;;;33.97;16.98;;;;;;;8.79;66.08;100355.56;5051248;28;20104;-48
2021/11/14 07:44:00;;;;;;;35.28;17.92;;;;;;;8.71;66.36;100351.16;5052030;28;20028;-50
2021/11/14 07:46:26;;;;;;;31.67;17.55;;;;;;;8.83;65.97;100345.44;5052007;28;20020;-47
2021/11/14 07:48:52;;;;;;;35.75;17.92;;;;;;;8.76;66.02;100347.97;5051807;28;20492;-50
2021/11/14 07:51:18;;;;;;;35.80;18.00;;;;;;;9.09;65.86;100351.19;5051692;28;20029;-47
2021/11/14 07:53:44;;;;;;;35.60;18.40;;;;;;;9.19;65.03;100358.91;5051835;28;20045;-49
2021/11/14 07:56:09;;;;;;;35.88;17.58;;;;;;;9.20;65.17;100357.91;5051711;28;20044;-49
2021/11/14 07:58:35;;;;;;;35.47;18.80;;;;;;;8.93;66.04;100359.28;5051539;28;20502;-48
2021/11/14 08:01:00;;;;;;;35.88;17.23;;;;;;;8.55;67.05;100353.91;5051838;28;20017;-49
2021/11/14 08:03:31;;;;;;;36.45;19.73;;;;;;;8.41;67.45;100360.75;5051584;28;20028;-51
2021/11/14 08:05:56;;;;;;;38.92;18.55;;;;;;;8.71;66.38;100366.25;5051936;28;20060;-50
2021/11/14 08:08:22;;;;;;;38.17;19.45;;;;;;;9.00;65.85;100353.09;5051728;28;20107;-50
2021/11/14 08:10:47;;;;;;;38.30;19.98;;;;;;;9.43;63.97;100351.72;5051529;28;20639;-48
2021/11/14 08:13:13;;;;;;;38.88;19.27;;;;;;;9.48;63.59;100344.88;5051469;28;20036;-47
2021/11/14 08:15:38;;;;;;;35.47;18.48;;;;;;;9.48;64.23;100354.66;5051997;28;20033;-48
2021/11/14 08:18:04;;;;;;;36.85;19.05;;;;;;;9.31;64.43;100354.81;5051873;28;20432;-47
2021/11/14 08:20:33;;;;;;;38.70;18.95;;;;;;;9.17;64.74;100355.59;5051413;28;20017;-48
2021/11/14 08:23:00;;;;;;;37.97;19.33;;;;;;;9.34;64.41;100353.63;5051452;28;20087;-48
2021/11/14 08:25:25;;;;;;;36.80;19.02;;;;;;;9.28;65.07;100355.19;5051050;28;20027;-50
2021/11/14 08:27:51;;;;;;;36.00;18.60;;;;;;;9.35;64.41;100353.47;5051440;28;20016;-49
2021/11/14 08:30:16;;;;;;;36.92;18.80;;;;;;;9.23;65.04;100346.91;5050317;28;20029;-50
2021/11/14 08:32:42;;;;;;;37.25;18.25;;;;;;;9.29;64.89;100345.38;5050979;28;20041;-49
2021/11/14 08:35:08;;;;;;;41.33;20.17;;;;;;;9.06;65.63;100340.09;5050822;28;20106;-48
2021/11/14 08:37:34;;;;;;;32.30;18.08;;;;;;;9.83;63.52;100339.84;5051311;28;20465;-48
2021/11/14 08:40:01;;;;;;;33.63;16.83;;;;;;;10.21;61.64;100349.53;5050811;28;20136;-48
2021/11/14 08:42:26;;;;;;;32.78;16.83;;;;;;;10.11;61.82;100342.66;5050932;28;20109;-47
2021/11/14 08:44:52;;;;;;;36.60;17.50;;;;;;;9.76;62.59;100347.69;5051231;28;20158;-48
2021/11/14 08:47:17;;;;;;;34.30;17.42;;;;;;;9.73;64.30;100345.44;5050737;28;20369;-49
2021/11/14 08:49:43;;;;;;;34.53;16.25;;;;;;;9.85;63.80;100353.78;5050551;28;20141;-48
2021/11/14 08:52:09;;;;;;;31.80;16.52;;;;;;;9.74;63.44;100347.06;5050666;28;20029;-51
2021/11/14 08:54:35;;;;;;;30.30;15.95;;;;;;;9.69;63.25;100345.97;5050871;28;20025;-49
2021/11/14 08:57:00;;;;;;;29.60;16.35;;;;;;;9.93;62.69;100356.31;5050783;28;20037;-50
2021/11/14 08:59:28;;;;;;;32.80;16.77;;;;;;;9.97;62.36;100356.78;5050567;28;20044;-50
2021/11/14 09:01:54;;;;;;;32.03;17.13;;;;;;;9.96;63.22;100349.81;5050273;28;20035;-48
2021/11/14 09:04:19;;;;;;;32.83;16.63;;;;;;;9.75;63.67;100321.34;5050310;28;20041;-50
2021/11/14 09:06:45;;;;;;;34.35;17.02;;;;;;;10.11;62.93;100342.66;5049128;28;20032;-49
2021/11/14 09:09:11;;;;;;;31.25;16.30;;;;;;;9.95;63.19;100341.00;5050416;28;20147;-51
2021/11/14 09:11:37;;;;;;;35.58;17.63;;;;;;;10.01;62.76;100336.78;5050000;28;20025;-48
2021/11/14 09:14:03;;;;;;;33.08;15.93;;;;;;;10.12;62.25;100335.50;5047895;28;20511;-48
2021/11/14 09:16:29;;;;;;;31.45;16.88;;;;;;;10.22;62.19;100336.00;5039190;28;20056;-50
2021/11/14 09:18:56;;;;;;;32.88;17.17;;;;;;;10.35;61.95;100344.19;5034658;28;20021;-48
2021/11/14 09:21:21;;;;;;;32.00;16.48;;;;;;;10.42;60.91;100340.78;5032156;28;20033;-49
2021/11/14 09:23:47;;;;;;;31.10;16.98;;;;;;;10.89;60.03;100336.75;5041234;28;20357;-49
2021/11/14 09:26:13;;;;;;;33.03;15.90;;;;;;;10.63;62.00;100327.50;5030205;28;20033;-48
2021/11/14 09:28:39;;;;;;;28.95;15.90;;;;;;;10.26;62.46;100333.81;5030289;28;20029;-51
2021/11/14 09:31:04;;;;;;;30.17;16.67;;;;;;;10.32;62.05;100325.13;5034090;28;20029;-48
2021/11/14 09:33:31;;;;;;;31.15;17.27;;;;;;;10.33;61.92;100316.94;5049749;28;20036;-45
2021/11/14 09:35:56;;;;;;;34.58;17.85;;;;;;;10.31;61.82;100316.31;5049676;28;20063;-49
2021/11/14 09:38:22;;;;;;;36.53;17.63;;;;;;;10.20;62.49;100316.75;5050197;28;20029;-51
2021/11/14 09:40:47;;;;;;;32.85;17.60;;;;;;;10.33;61.87;100316.13;5049499;28;20105;-47
2021/11/14 09:43:13;;;;;;;28.13;16.25;;;;;;;10.26;61.85;100317.84;5049652;28;20032;-49
2021/11/14 09:45:39;;;;;;;34.05;18.17;;;;;;;10.31;61.29;100310.19;5049922;28;20391;-49
2021/11/14 09:48:05;;;;;;;30.58;17.35;;;;;;;10.28;62.50;100306.03;5049806;28;20021;-50
2021/11/14 09:50:33;;;;;;;34.78;18.23;;;;;;;10.07;63.82;100305.97;5049681;28;20044;-48
2021/11/14 09:52:58;;;;;;;31.73;17.45;;;;;;;10.15;64.47;100308.53;5050029;28;20025;-38
2021/11/14 09:55:24;;;;;;;34.97;18.00;;;;;;;10.14;65.04;100315.66;5050154;28;20103;-49
2021/11/14 09:57:50;;;;;;;31.30;17.05;;;;;;;10.43;62.14;100305.19;5048416;28;20033;-49
2021/11/14 10:00:17;;;;;;;32.08;17.33;;;;;;;10.64;61.04;100302.53;5049994;28;20013;-47
2021/11/14 10:02:43;;;;;;;32.25;17.08;;;;;;;11.41;59.28;100303.56;5049920;28;20036;-51
2021/11/14 10:05:09;;;;;;;34.45;17.48;;;;;;;11.02;59.60;100304.91;5050073;28;20021;-48
2021/11/14 10:07:37;;;;;;;29.58;16.75;;;;;;;10.85;59.73;100304.38;5048952;28;20024;-49
2021/11/14 10:10:03;;;;;;;30.95;17.10;;;;;;;10.57;61.65;100294.47;5049560;28;20028;-47
2021/11/14 10:12:35;;;;;;;33.13;16.20;;;;;;;10.50;61.43;100301.56;5049466;28;20037;-48
2021/11/14 10:15:20;;;;;;;31.98;16.05;;;;;;;10.77;60.88;100293.84;5048917;28;20035;-49
2021/11/14 10:17:49;;;;;;;27.85;15.38;;;;;;;10.79;60.49;100289.16;5049170;28;20033;-48
2021/11/14 10:20:17;;;;;;;28.25;14.27;;;;;;;10.79;60.10;100291.81;5049184;28;20048;-47
2021/11/14 10:22:44;;;;;;;31.38;16.50;;;;;;;10.67;61.19;100288.03;5049248;28;20036;-50
2021/11/14 10:25:10;;;;;;;28.52;15.77;;;;;;;10.73;61.14;100284.59;5048983;28;20072;-48
2021/11/14 10:27:36;;;;;;;27.65;15.15;;;;;;;10.81;60.65;100281.78;5049428;28;20035;-50
2021/11/14 10:30:05;;;;;;;28.33;15.75;;;;;;;10.54;61.80;100284.22;5049219;28;20033;-48
2021/11/14 10:32:30;;;;;;;32.08;17.90;;;;;;;10.40;62.30;100278.97;5049374;28;20048;-48
2021/11/14 10:34:59;;;;;;;33.83;16.40;;;;;;;10.62;62.00;100279.78;5049089;28;20056;-49
2021/11/14 10:37:25;;;;;;;25.92;13.93;;;;;;;10.36;61.83;100281.19;5049940;28;20029;-48
2021/11/14 10:39:52;;;;;;;30.88;14.93;;;;;;;10.40;62.42;100278.97;5049790;28;20087;-47
2021/11/14 10:42:20;;;;;;;31.15;16.48;;;;;;;10.43;62.58;100279.38;5048836;28;20031;-47
2021/11/14 10:44:54;;;;;;;31.20;16.58;;;;;;;10.20;63.33;100279.53;5047707;28;20487;-37
2021/11/14 10:47:23;;;;;;;28.13;14.27;;;;;;;10.21;62.74;100280.38;5049154;28;20028;-38
2021/11/14 10:50:10;;;;;;;28.92;15.68;;;;;;;10.42;62.82;100283.06;5046975;28;20175;-38
2021/11/14 10:52:36;;;;;;;32.75;15.43;;;;;;;10.57;62.33;100273.19;5046665;28;20033;-38
2021/11/14 10:55:07;;;;;;;32.10;16.05;;;;;;;10.41;62.70;100281.41;5048805;28;20025;-37
2021/11/14 10:57:33;;;;;;;26.63;13.68;;;;;;;10.72;61.87;100270.47;5049740;28;20029;-38
2021/11/14 10:59:59;;;;;;;24.10;13.52;;;;;;;10.80;61.60;100277.50;5049885;28;20090;-37
2021/11/14 11:02:25;;;;;;;24.98;14.32;;;;;;;10.41;62.66;100276.09;5049762;28;20029;-38
2021/11/14 11:04:51;;;;;;;28.90;14.40;;;;;;;10.33;62.60;100276.22;5049557;28;20033;-37
2021/11/14 11:07:17;;;;;;;28.98;14.70;;;;;;;10.04;64.16;100259.31;5047957;28;20064;-38
2021/11/14 11:09:43;;;;;;;29.13;14.55;;;;;;;10.02;64.81;100273.81;5049628;28;20025;-38
2021/11/14 11:12:22;;;;;;;26.70;14.10;;;;;;;10.22;64.10;100272.19;5049648;28;20380;-38
2021/11/14 11:14:55;;;;;;;24.05;13.02;;;;;;;10.41;62.98;100267.28;5049513;28;20139;-38